Kembe Airport


Codes: FEFK/
Name: Kembe Airport
City: Kembe
Country: Central African Republic
Elevation: 1913 ft.

Photos at Kembe Airport


   Photos courtesy of SpottingLog. You can add your own sightings and photos by signing up for a free trial today.



No photos found.

Weather at Kembe Airport


Time (UTC)DescriptionTempratureWindCloud coverageVisibilityPressureHumidity
15-Apr-2024 18:00Overcast Clouds27°C2 mph, S99%10000m1008hPa59%
15-Apr-2024 21:00Overcast Clouds26°C4 mph, S94%10000m1008hPa62%
16-Apr-2024 00:00Overcast Clouds24°C2 mph, SE90%10000m1008hPa73%
16-Apr-2024 03:00Overcast Clouds23°C2 mph, SE100%10000m1010hPa80%
16-Apr-2024 06:00Light Rain25°C4 mph, SE100%10000m1012hPa74%
16-Apr-2024 09:00Overcast Clouds31°C7 mph, S98%10000m1011hPa49%
16-Apr-2024 12:00Overcast Clouds36°C2 mph, S99%10000m1007hPa35%
16-Apr-2024 15:00Overcast Clouds36°C2 mph, SE100%10000m1004hPa30%
16-Apr-2024 18:00Overcast Clouds29°C2 mph, S100%10000m1006hPa46%
16-Apr-2024 21:00Overcast Clouds26°C4 mph, S99%10000m1007hPa55%
17-Apr-2024 00:00Broken Clouds23°C2 mph, S84%10000m1007hPa69%
17-Apr-2024 03:00Broken Clouds22°C2 mph, SE74%10000m1008hPa75%
17-Apr-2024 06:00Scattered Clouds26°C2 mph, SE50%10000m1010hPa60%
17-Apr-2024 09:00Scattered Clouds35°C4 mph, S35%10000m1008hPa34%
17-Apr-2024 12:00Scattered Clouds40°C4 mph, SE44%10000m1004hPa22%
17-Apr-2024 15:00Overcast Clouds36°C2 mph, S100%10000m1002hPa30%
17-Apr-2024 18:00Overcast Clouds30°C7 mph, SE93%10000m1005hPa43%
17-Apr-2024 21:00Overcast Clouds27°C2 mph, S89%10000m1006hPa57%
18-Apr-2024 00:00Overcast Clouds24°C4 mph, S89%10000m1006hPa72%
18-Apr-2024 03:00Broken Clouds23°C0 mph, N72%10000m1008hPa78%
18-Apr-2024 06:00Light Rain26°C2 mph, SE85%10000m1010hPa68%
18-Apr-2024 09:00Overcast Clouds36°C7 mph, SE93%10000m1008hPa37%
18-Apr-2024 12:00Broken Clouds40°C4 mph, SE64%10000m1004hPa25%
18-Apr-2024 15:00Light Rain29°C4 mph, SW84%10000m1003hPa55%
18-Apr-2024 18:00Light Rain24°C4 mph, SW92%10000m1006hPa79%
18-Apr-2024 21:00Overcast Clouds23°C4 mph, SE100%10000m1008hPa87%
19-Apr-2024 00:00Overcast Clouds22°C2 mph, SE100%10000m1007hPa93%
19-Apr-2024 03:00Light Rain22°C2 mph, SE99%10000m1008hPa90%
19-Apr-2024 06:00Light Rain23°C4 mph, S99%10000m1010hPa89%
19-Apr-2024 09:00Overcast Clouds29°C7 mph, S100%10000m1010hPa55%
19-Apr-2024 12:00Overcast Clouds34°C7 mph, S100%10000m1006hPa39%
19-Apr-2024 15:00Overcast Clouds33°C4 mph, SW100%10000m1004hPa41%
19-Apr-2024 18:00Light Rain25°C4 mph, SW100%10000m1007hPa80%
19-Apr-2024 21:00Light Rain23°C2 mph, NE100%10000m1009hPa88%
20-Apr-2024 00:00Moderate Rain22°C4 mph, S100%10000m1009hPa96%
20-Apr-2024 03:00Overcast Clouds22°C4 mph, S100%10000m1008hPa97%
20-Apr-2024 06:00Overcast Clouds23°C4 mph, W100%10000m1010hPa92%
20-Apr-2024 09:00Overcast Clouds30°C7 mph, SW100%10000m1010hPa56%
20-Apr-2024 12:00Overcast Clouds34°C7 mph, S100%10000m1007hPa41%
20-Apr-2024 15:00Light Rain30°C7 mph, S98%10000m1006hPa56%